createdAt,value
2019-04-29T00:00:10.679Z,102417.48
2019-04-29T00:02:39.863Z,102425.02
2019-04-29T00:05:09.099Z,102423.57
2019-04-29T00:07:38.338Z,102428.00
2019-04-29T00:10:09.911Z,102438.58
2019-04-29T00:12:39.266Z,102435.57
2019-04-29T00:15:22.188Z,102439.87
2019-04-29T00:17:53.035Z,102445.52
2019-04-29T00:20:29.324Z,102446.02
2019-04-29T00:22:58.502Z,102447.67
2019-04-29T00:25:27.695Z,102453.66
2019-04-29T00:27:56.925Z,102448.98
2019-04-29T00:30:26.101Z,102458.02
2019-04-29T00:32:55.407Z,102453.00
2019-04-29T00:35:24.613Z,102454.03
2019-04-29T00:38:10.711Z,102453.91
2019-04-29T00:40:56.391Z,102455.56
2019-04-29T00:43:29.783Z,102454.62
2019-04-29T00:45:59.052Z,102453.42
2019-04-29T00:48:28.232Z,102454.94
2019-04-29T00:50:57.411Z,102452.84
2019-04-29T00:53:27.382Z,102457.02
2019-04-29T00:55:56.585Z,102457.27
2019-04-29T00:58:25.886Z,102451.44
2019-04-29T01:00:55.167Z,102451.70
2019-04-29T01:03:24.379Z,102461.92
2019-04-29T01:05:53.609Z,102455.20
2019-04-29T01:08:22.777Z,102458.02
2019-04-29T01:10:52.154Z,102459.14
2019-04-29T01:13:21.360Z,102463.34
2019-04-29T01:15:50.544Z,102462.23
2019-04-29T01:18:19.854Z,102467.13
2019-04-29T01:20:49.063Z,102469.73
2019-04-29T01:23:18.215Z,102474.71
2019-04-29T01:25:49.022Z,102474.85
2019-04-29T01:28:28.869Z,102474.84
2019-04-29T01:31:06.645Z,102477.66
2019-04-29T01:33:35.904Z,102479.17
2019-04-29T01:36:18.274Z,102484.22
2019-04-29T01:38:49.350Z,102483.14
2019-04-29T01:41:31.960Z,102487.95
2019-04-29T01:44:05.130Z,102484.49
2019-04-29T01:46:34.382Z,102493.84
2019-04-29T01:49:03.594Z,102483.91
2019-04-29T01:51:32.882Z,102488.27
2019-04-29T01:54:02.058Z,102485.02
2019-04-29T01:56:31.283Z,102483.48
2019-04-29T01:59:00.461Z,102484.23
2019-04-29T02:01:29.793Z,102489.83
2019-04-29T02:03:59.084Z,102489.28
2019-04-29T02:06:28.290Z,102494.06
2019-04-29T02:08:57.672Z,102495.19
2019-04-29T02:11:26.865Z,102489.36
2019-04-29T02:13:56.049Z,102499.80
2019-04-29T02:16:25.287Z,102501.91
2019-04-29T02:18:54.836Z,102503.64
2019-04-29T02:21:24.060Z,102504.25
2019-04-29T02:24:12.674Z,102508.11
2019-04-29T02:26:41.912Z,102507.59
2019-04-29T02:29:11.107Z,102521.32
2019-04-29T02:31:44.457Z,102518.81
2019-04-29T02:34:13.700Z,102523.90
2019-04-29T02:36:42.868Z,102515.09
2019-04-29T02:39:30.250Z,102517.55
2019-04-29T02:42:09.820Z,102521.14
2019-04-29T02:44:39.053Z,102520.03
2019-04-29T02:47:08.313Z,102525.00
2019-04-29T02:49:37.493Z,102519.91
2019-04-29T02:52:06.762Z,102512.66
2019-04-29T02:54:35.958Z,102518.63
2019-04-29T02:57:09.800Z,102519.02
2019-04-29T02:59:40.628Z,102515.17
2019-04-29T03:02:13.957Z,102513.81
2019-04-29T03:04:50.927Z,102518.91
2019-04-29T03:07:20.877Z,102522.02
2019-04-29T03:09:50.163Z,102521.67
2019-04-29T03:12:19.553Z,102520.70
2019-04-29T03:14:48.739Z,102521.97
2019-04-29T03:17:18.862Z,102522.17
2019-04-29T03:20:05.415Z,102529.84
2019-04-29T03:22:35.080Z,102527.84
2019-04-29T03:25:04.936Z,102534.50
2019-04-29T03:27:34.129Z,102533.84
2019-04-29T03:30:03.528Z,102536.66
2019-04-29T03:32:32.805Z,102539.27
2019-04-29T03:35:02.056Z,102538.00
2019-04-29T03:37:31.473Z,102538.48
2019-04-29T03:40:00.813Z,102543.33
2019-04-29T03:42:31.716Z,102542.26
2019-04-29T03:45:00.914Z,102540.28
2019-04-29T03:47:30.093Z,102542.73
2019-04-29T03:49:59.460Z,102547.48
2019-04-29T03:52:28.774Z,102547.73
2019-04-29T03:54:57.985Z,102549.94
2019-04-29T03:57:28.994Z,102551.36
2019-04-29T03:59:58.170Z,102553.42
2019-04-29T04:02:33.572Z,102554.36
2019-04-29T04:05:19.547Z,102555.07
2019-04-29T04:07:58.939Z,102552.98
2019-04-29T04:10:28.197Z,102551.56
2019-04-29T04:12:57.398Z,102556.14
2019-04-29T04:15:26.598Z,102558.91
2019-04-29T04:18:06.364Z,102563.16
2019-04-29T04:20:35.702Z,102563.22
2019-04-29T04:23:05.068Z,102567.43
2019-04-29T04:25:34.248Z,102568.88
2019-04-29T04:28:03.432Z,102569.20
2019-04-29T04:30:32.636Z,102570.52
2019-04-29T04:33:01.838Z,102573.41
2019-04-29T04:35:31.147Z,102576.06
2019-04-29T04:38:00.305Z,102577.69
2019-04-29T04:40:48.999Z,102582.58
2019-04-29T04:43:18.154Z,102577.50
2019-04-29T04:56:37.054Z,102587.02
2019-04-29T05:13:34.195Z,102598.65
2019-04-29T05:32:30.573Z,102612.56
2019-04-29T05:38:03.229Z,102620.41
2019-04-29T05:40:40.166Z,102619.61
2019-04-29T05:43:14.270Z,102616.44
2019-04-29T06:03:05.141Z,102629.93
2019-04-29T06:05:34.331Z,102627.66
2019-04-29T06:08:03.706Z,102630.64
2019-04-29T06:10:37.442Z,102630.43
2019-04-29T06:13:07.039Z,102632.67
2019-04-29T06:15:36.512Z,102631.17
2019-04-29T06:18:06.475Z,102629.91
2019-04-29T06:20:35.672Z,102637.50
2019-04-29T06:23:05.259Z,102635.53
2019-04-29T06:28:03.113Z,102643.98
2019-04-29T06:30:32.356Z,102638.98
2019-04-29T06:33:02.212Z,102639.91
2019-04-29T06:35:31.449Z,102636.45
2019-04-29T06:38:00.899Z,102638.90
2019-04-29T06:40:35.265Z,102644.14
2019-04-29T06:43:01.941Z,102646.28
2019-04-29T06:45:31.183Z,102644.80
2019-04-29T06:51:03.587Z,102643.80
2019-04-29T06:56:15.019Z,102659.39
2019-04-29T07:04:14.160Z,102665.23
2019-04-29T07:06:56.429Z,102667.27
2019-04-29T07:09:14.314Z,102672.11
2019-04-29T07:11:43.581Z,102675.22
2019-04-29T07:14:12.812Z,102679.77
2019-04-29T07:16:42.220Z,102683.72
2019-04-29T07:19:11.427Z,102686.88
2019-04-29T07:21:41.789Z,102689.20
2019-04-29T07:24:11.653Z,102686.98
2019-04-29T07:26:40.906Z,102684.37
2019-04-29T07:29:10.112Z,102682.75
2019-04-29T07:31:39.525Z,102682.64
2019-04-29T07:34:09.251Z,102680.27
2019-04-29T07:36:38.535Z,102683.83
2019-04-29T07:39:12.751Z,102679.42
2019-04-29T07:41:44.414Z,102682.83
2019-04-29T07:44:18.272Z,102679.66
2019-04-29T07:46:56.675Z,102682.39
2019-04-29T07:55:20.249Z,102681.58
2019-04-29T07:57:52.125Z,102684.97
2019-04-29T08:00:33.028Z,102681.27
2019-04-29T08:03:03.846Z,102682.19
2019-04-29T08:05:35.219Z,102685.31
2019-04-29T08:08:04.834Z,102682.28
2019-04-29T08:10:34.256Z,102688.05
2019-04-29T08:13:03.770Z,102690.67
2019-04-29T08:15:36.885Z,102693.05
2019-04-29T08:18:06.834Z,102694.25
2019-04-29T08:20:35.442Z,102694.31
2019-04-29T08:23:06.357Z,102690.22
2019-04-29T08:25:35.612Z,102690.41
2019-04-29T08:29:00.366Z,102690.48
2019-04-29T08:42:59.976Z,102693.76
2019-04-29T08:48:26.555Z,102694.37
2019-04-29T08:50:55.780Z,102695.38
2019-04-29T08:56:10.276Z,102689.09
2019-04-29T08:58:39.486Z,102690.14
2019-04-29T09:01:08.859Z,102688.17
2019-04-29T09:03:40.641Z,102692.87
2019-04-29T09:06:09.527Z,102688.28
2019-04-29T09:08:53.477Z,102684.93
2019-04-29T09:11:12.896Z,102687.35
2019-04-29T09:13:41.632Z,102692.52
2019-04-29T09:16:10.890Z,102686.33
2019-04-29T09:18:40.318Z,102681.56
2019-04-29T09:29:47.906Z,102682.59
2019-04-29T09:32:17.318Z,102678.70
2019-04-29T09:34:55.561Z,102671.64
2019-04-29T09:37:22.901Z,102671.25
2019-04-29T09:39:52.954Z,102672.95
2019-04-29T09:42:31.012Z,102668.31
2019-04-29T09:45:19.599Z,102667.95
2019-04-29T09:47:48.809Z,102668.40
2019-04-29T09:50:18.844Z,102668.96
2019-04-29T09:52:48.133Z,102668.13
2019-04-29T09:55:18.947Z,102663.48
2019-04-29T09:57:48.172Z,102660.11
2019-04-29T10:00:27.703Z,102667.45
2019-04-29T10:02:58.650Z,102662.08
2019-04-29T10:05:29.573Z,102660.30
2019-04-29T10:07:58.827Z,102656.70
2019-04-29T10:10:28.268Z,102650.80
2019-04-29T10:13:03.666Z,102651.39
2019-04-29T10:15:40.701Z,102646.23
2019-04-29T10:18:11.555Z,102647.70
2019-04-29T10:20:51.515Z,102648.41
2019-04-29T10:23:22.604Z,102648.83
2019-04-29T10:25:55.871Z,102645.75
2019-04-29T10:28:25.089Z,102639.47
2019-04-29T10:30:54.316Z,102640.13
2019-04-29T10:33:24.268Z,102638.33
2019-04-29T10:35:53.590Z,102633.08
2019-04-29T10:38:22.901Z,102630.88
2019-04-29T10:40:56.551Z,102630.88
2019-04-29T10:43:37.188Z,102631.77
2019-04-29T10:46:08.161Z,102631.66
2019-04-29T10:48:40.781Z,102629.42
2019-04-29T10:51:11.867Z,102620.86
2019-04-29T10:53:41.141Z,102621.03
2019-04-29T10:56:10.527Z,102625.04
2019-04-29T10:58:40.029Z,102613.39
2019-04-29T11:01:39.618Z,102617.70
2019-04-29T11:04:09.145Z,102621.47
2019-04-29T11:06:38.421Z,102616.97
2019-04-29T11:09:29.629Z,102612.75
2019-04-29T11:12:23.064Z,102612.79
2019-04-29T11:21:20.744Z,102608.83
2019-04-29T11:23:54.883Z,102604.48
2019-04-29T11:26:29.020Z,102610.63
2019-04-29T11:28:59.648Z,102608.95
2019-04-29T11:31:29.019Z,102608.73
2019-04-29T11:34:05.636Z,102600.67
2019-04-29T11:36:38.963Z,102595.95
2019-04-29T11:39:09.002Z,102593.59
2019-04-29T11:41:39.570Z,102590.38
2019-04-29T11:44:08.872Z,102597.61
2019-04-29T11:46:38.773Z,102590.42
2019-04-29T11:49:08.759Z,102593.41
2019-04-29T11:52:05.047Z,102594.12
2019-04-29T11:54:17.945Z,102594.61
2019-04-29T12:08:15.989Z,102567.02
2019-04-29T12:13:58.835Z,102569.42
2019-04-29T12:28:57.344Z,102566.19
2019-04-29T12:31:49.444Z,102556.75
2019-04-29T12:34:27.646Z,102554.09
2019-04-29T12:36:58.428Z,102552.30
2019-04-29T12:39:45.053Z,102548.52
2019-04-29T12:54:30.102Z,102539.42
2019-04-29T12:57:23.369Z,102533.09
2019-04-29T13:03:21.886Z,102538.22
2019-04-29T13:06:23.083Z,102530.86
2019-04-29T13:08:51.102Z,102522.58
2019-04-29T13:39:08.275Z,102484.83
2019-04-29T13:57:38.173Z,102495.39
2019-04-29T14:00:11.696Z,102483.78
2019-04-29T14:02:58.432Z,102487.70
2019-04-29T14:05:19.634Z,102483.38
2019-04-29T14:07:52.603Z,102484.75
2019-04-29T14:10:23.022Z,102472.55
2019-04-29T14:13:05.084Z,102465.91
2019-04-29T14:15:23.415Z,102474.39
2019-04-29T14:17:52.791Z,102472.45
2019-04-29T14:20:22.150Z,102472.62
2019-04-29T14:22:51.527Z,102468.44
2019-04-29T14:25:20.772Z,102460.44
2019-04-29T14:27:50.119Z,102471.29
2019-04-29T14:30:21.063Z,102474.42
2019-04-29T14:32:52.371Z,102466.55
2019-04-29T14:35:25.820Z,102473.58
2019-04-29T14:37:59.930Z,102461.16
2019-04-29T14:40:26.127Z,102463.50
2019-04-29T14:43:07.570Z,102452.06
2019-04-29T14:45:45.006Z,102456.83
2019-04-29T14:48:16.000Z,102459.25
2019-04-29T14:50:49.602Z,102463.60
2019-04-29T14:53:27.720Z,102460.94
2019-04-29T14:55:57.264Z,102457.31
2019-04-29T14:58:27.284Z,102447.59
2019-04-29T15:00:58.724Z,102446.80
2019-04-29T15:03:30.224Z,102445.38
2019-04-29T15:05:59.628Z,102448.42
2019-04-29T15:08:32.022Z,102454.94
2019-04-29T15:11:04.113Z,102451.53
2019-04-29T15:13:33.046Z,102458.40
2019-04-29T15:16:09.677Z,102455.59
2019-04-29T15:18:53.559Z,102446.20
2019-04-29T15:21:32.028Z,102449.03
2019-04-29T15:23:56.642Z,102444.54
2019-04-29T15:26:26.224Z,102444.98
2019-04-29T15:28:56.229Z,102452.05
2019-04-29T15:31:26.059Z,102463.58
2019-04-29T15:33:55.282Z,102465.23
2019-04-29T15:36:26.282Z,102471.72
2019-04-29T15:39:09.024Z,102470.06
2019-04-29T15:41:30.984Z,102472.44
2019-04-29T15:44:07.212Z,102466.73
2019-04-29T15:46:45.153Z,102468.13
2019-04-29T15:49:00.651Z,102479.12
2019-04-29T15:51:29.880Z,102471.48
2019-04-29T15:53:59.179Z,102469.16
2019-04-29T15:56:33.383Z,102471.84
2019-04-29T15:59:07.723Z,102478.88
2019-04-29T16:01:30.959Z,102474.75
2019-04-29T16:04:02.084Z,102477.37
2019-04-29T16:06:40.182Z,102474.70
2019-04-29T16:09:09.365Z,102473.93
2019-04-29T16:11:40.366Z,102474.58
2019-04-29T16:14:14.504Z,102469.88
2019-04-29T16:16:43.898Z,102475.30
2019-04-29T16:19:13.189Z,102479.31
2019-04-29T16:21:42.671Z,102479.11
2019-04-29T16:24:25.743Z,102475.84
2019-04-29T16:26:43.681Z,102479.66
2019-04-29T16:29:15.418Z,102475.27
2019-04-29T16:31:44.021Z,102481.47
2019-04-29T16:34:13.368Z,102479.69
2019-04-29T16:36:43.794Z,102481.20
2019-04-29T16:39:13.497Z,102481.64
2019-04-29T16:41:58.020Z,102480.31
2019-04-29T16:44:35.614Z,102477.20
2019-04-29T16:46:55.607Z,102470.12
2019-04-29T16:49:24.916Z,102470.80
2019-04-29T16:51:55.817Z,102478.95
2019-04-29T16:54:28.426Z,102482.52
2019-04-29T16:56:56.233Z,102479.88
2019-04-29T16:59:25.459Z,102484.18
2019-04-29T17:01:54.795Z,102475.52
2019-04-29T17:04:24.128Z,102476.81
2019-04-29T17:07:11.841Z,102471.04
2019-04-29T17:09:41.759Z,102475.41
2019-04-29T17:12:11.563Z,102481.50
2019-04-29T17:15:02.206Z,102474.91
2019-04-29T17:17:13.408Z,102468.40
2019-04-29T17:19:42.594Z,102466.64
2019-04-29T17:22:25.476Z,102469.30
2019-04-29T17:24:43.524Z,102467.63
2019-04-29T17:27:23.545Z,102467.45
2019-04-29T17:30:07.988Z,102466.76
2019-04-29T17:32:54.348Z,102463.91
2019-04-29T17:37:55.332Z,102467.39
2019-04-29T17:40:25.240Z,102480.51
2019-04-29T17:42:56.203Z,102481.88
2019-04-29T17:45:30.577Z,102485.36
2019-04-29T17:48:18.370Z,102481.85
2019-04-29T17:50:53.370Z,102483.05
2019-04-29T17:53:35.336Z,102487.40
2019-04-29T17:56:14.987Z,102477.86
2019-04-29T17:58:53.877Z,102483.52
2019-04-29T18:01:43.393Z,102482.95
2019-04-29T18:04:30.335Z,102482.59
2019-04-29T18:07:12.219Z,102480.97
2019-04-29T18:09:49.069Z,102482.85
2019-04-29T18:12:19.938Z,102489.50
2019-04-29T18:14:49.194Z,102493.23
2019-04-29T18:17:27.049Z,102492.23
2019-04-29T18:19:55.100Z,102497.56
2019-04-29T18:22:35.313Z,102498.27
2019-04-29T18:25:15.008Z,102500.47
2019-04-29T18:27:49.019Z,102495.32
2019-04-29T18:30:19.525Z,102501.42
2019-04-29T18:32:48.460Z,102505.77
2019-04-29T18:35:18.105Z,102507.51
2019-04-29T18:37:47.772Z,102504.66
2019-04-29T18:40:17.295Z,102507.33
2019-04-29T18:42:48.553Z,102505.67
2019-04-29T18:45:17.592Z,102508.03
2019-04-29T18:47:50.213Z,102518.30
2019-04-29T18:50:22.152Z,102521.34
2019-04-29T18:52:52.191Z,102529.00
2019-04-29T18:55:21.559Z,102529.06
2019-04-29T18:57:51.467Z,102529.36
2019-04-29T19:00:22.182Z,102534.05
2019-04-29T19:02:57.033Z,102529.53
2019-04-29T19:05:32.288Z,102525.86
2019-04-29T19:08:11.470Z,102532.43
2019-04-29T19:10:34.346Z,102531.75
2019-04-29T19:13:07.114Z,102535.17
2019-04-29T19:15:35.445Z,102538.37
2019-04-29T19:18:07.606Z,102537.78
2019-04-29T19:20:36.011Z,102535.26
2019-04-29T19:25:35.419Z,102540.87
2019-04-29T19:28:12.726Z,102551.38
2019-04-29T19:30:37.491Z,102556.68
2019-04-29T19:33:09.048Z,102553.45
2019-04-29T19:35:38.833Z,102551.83
2019-04-29T19:38:12.443Z,102556.48
2019-04-29T19:40:42.441Z,102551.34
2019-04-29T19:43:17.397Z,102553.56
2019-04-29T19:45:44.655Z,102552.84
2019-04-29T19:48:13.039Z,102555.25
2019-04-29T19:50:42.948Z,102563.13
2019-04-29T19:53:12.852Z,102565.90
2019-04-29T19:55:43.269Z,102562.98
2019-04-29T19:58:14.552Z,102566.30
2019-04-29T20:00:47.351Z,102564.34
2019-04-29T20:03:24.399Z,102569.16
2019-04-29T20:05:53.600Z,102568.27
2019-04-29T20:08:46.256Z,102567.98
2019-04-29T20:11:11.048Z,102574.95
2019-04-29T20:13:31.443Z,102573.83
2019-04-29T20:16:13.130Z,102577.94
2019-04-29T20:19:01.903Z,102581.34
2019-04-29T20:21:37.439Z,102585.58
2019-04-29T20:24:09.397Z,102583.79
2019-04-29T20:26:38.126Z,102580.16
2019-04-29T20:29:07.738Z,102581.99
2019-04-29T20:31:38.993Z,102579.19
2019-04-29T20:34:08.235Z,102580.05
2019-04-29T20:36:41.113Z,102584.67
2019-04-29T20:39:15.114Z,102584.44
2019-04-29T20:41:44.428Z,102590.26
2019-04-29T20:44:12.157Z,102588.72
2019-04-29T20:46:51.723Z,102586.84
2019-04-29T20:49:12.686Z,102588.05
2019-04-29T20:51:49.753Z,102589.07
2019-04-29T20:54:20.343Z,102593.58
2019-04-29T20:57:01.336Z,102596.06
2019-04-29T20:59:20.773Z,102587.98
2019-04-29T21:01:56.869Z,102596.24
2019-04-29T21:04:32.036Z,102585.63
2019-04-29T21:07:00.486Z,102590.33
2019-04-29T21:09:30.151Z,102584.55
2019-04-29T21:12:03.017Z,102587.47
2019-04-29T21:14:38.155Z,102578.96
2019-04-29T21:17:10.813Z,102588.69
2019-04-29T21:19:38.802Z,102587.73
2019-04-29T21:22:08.356Z,102580.88
2019-04-29T21:24:39.096Z,102575.78
2019-04-29T21:27:08.442Z,102585.80
2019-04-29T21:29:37.753Z,102585.27
2019-04-29T21:32:07.554Z,102579.88
2019-04-29T21:34:45.266Z,102580.56
2019-04-29T21:37:21.927Z,102582.55
2019-04-29T21:39:55.256Z,102586.00
2019-04-29T21:42:29.677Z,102579.08
2019-04-29T21:44:58.580Z,102582.55
2019-04-29T21:47:41.703Z,102585.56
2019-04-29T21:50:00.162Z,102585.16
2019-04-29T21:52:29.448Z,102579.23
2019-04-29T21:54:58.697Z,102575.66
2019-04-29T21:57:28.148Z,102575.62
2019-04-29T21:59:57.356Z,102572.12
2019-04-29T22:02:27.637Z,102572.04
2019-04-29T22:04:57.333Z,102572.83
2019-04-29T22:07:26.913Z,102575.94
2019-04-29T22:09:56.146Z,102571.42
2019-04-29T22:12:25.820Z,102572.92
2019-04-29T22:14:56.450Z,102573.13
2019-04-29T22:17:32.722Z,102577.45
2019-04-29T22:20:03.820Z,102573.81
2019-04-29T22:22:30.688Z,102573.05
2019-04-29T22:25:05.786Z,102581.41
2019-04-29T22:27:34.170Z,102578.81
2019-04-29T22:30:01.634Z,102572.70
2019-04-29T22:32:31.155Z,102576.33
2019-04-29T22:35:01.627Z,102580.14
2019-04-29T22:37:36.667Z,102580.23
2019-04-29T22:40:03.112Z,102574.39
2019-04-29T22:42:35.498Z,102583.41
2019-04-29T22:45:06.522Z,102580.62
2019-04-29T22:47:35.993Z,102580.77
2019-04-29T22:50:05.736Z,102586.58
2019-04-29T22:52:36.709Z,102584.55
2019-04-29T22:55:07.399Z,102580.60
2019-04-29T22:57:36.746Z,102580.27
2019-04-29T23:00:08.275Z,102580.48
2019-04-29T23:02:37.663Z,102577.22
2019-04-29T23:05:07.440Z,102573.72
2019-04-29T23:07:37.803Z,102578.22
2019-04-29T23:10:08.349Z,102574.53
2019-04-29T23:12:38.186Z,102571.33
2019-04-29T23:15:08.121Z,102576.95
2019-04-29T23:17:38.017Z,102567.78
2019-04-29T23:20:09.769Z,102569.35
2019-04-29T23:22:46.747Z,102569.82
2019-04-29T23:25:21.830Z,102572.03
2019-04-29T23:27:52.673Z,102567.29
2019-04-29T23:30:22.102Z,102568.09
2019-04-29T23:32:51.570Z,102567.56
2019-04-29T23:35:20.950Z,102562.73
2019-04-29T23:37:50.736Z,102555.95
2019-04-29T23:40:20.219Z,102564.03
2019-04-29T23:42:49.801Z,102555.77
2019-04-29T23:45:21.157Z,102555.00
2019-04-29T23:47:50.524Z,102560.12
2019-04-29T23:50:20.246Z,102557.48
2019-04-29T23:52:51.812Z,102561.57
2019-04-29T23:55:27.408Z,102556.44
2019-04-29T23:57:55.584Z,102553.66
